Time;durP1;ratioP1;P1;durP2;ratioP2;P2;SDS_P1;SDS_P2;PMS_P1;PMS_P2;Temp;Humidity;BMP_temperature;BMP_pressure;BME280_temperature;BME280_humidity;BME280_pressure;Samples;Min_cycle;Max_cycle;Signal;HPM_P1;HPM_P2
2021/09/16 04:01:48;;;;;;;3.60;3.40;;;19.10;99.90;;;;;;5336847;23;21067;-68
2021/09/16 04:04:14;;;;;;;4.47;3.90;;;19.00;99.90;;;;;;4959365;28;20451;-68
2021/09/16 04:06:41;;;;;;;4.63;4.23;;;19.00;99.90;;;;;;4959639;29;20451;-68
2021/09/16 04:09:08;;;;;;;4.60;4.27;;;19.00;99.90;;;;;;4959599;29;20455;-68
2021/09/16 04:11:34;;;;;;;5.87;4.57;;;19.00;99.90;;;;;;4958987;29;20475;-67
2021/09/16 04:14:01;;;;;;;5.13;4.50;;;19.00;99.90;;;;;;4959019;29;20457;-67
2021/09/16 04:16:28;;;;;;;7.33;5.03;;;19.10;99.90;;;;;;4958986;28;20479;-68
2021/09/16 04:18:56;;;;;;;6.20;5.70;;;19.00;99.90;;;;;;4958844;29;20461;-68
2021/09/16 04:21:23;;;;;;;6.93;5.23;;;18.90;99.90;;;;;;4959014;28;20475;-67
2021/09/16 04:23:50;;;;;;;6.10;5.03;;;18.90;99.90;;;;;;4958822;28;20867;-69
2021/09/16 04:26:17;;;;;;;6.40;6.00;;;18.90;99.90;;;;;;4958905;29;20436;-68
2021/09/16 04:28:44;;;;;;;7.47;5.80;;;18.90;99.90;;;;;;4958566;28;20455;-67
2021/09/16 04:31:11;;;;;;;5.60;5.10;;;19.00;99.90;;;;;;4958631;29;20483;-68
2021/09/16 04:33:37;;;;;;;7.90;5.83;;;19.00;99.90;;;;;;4957675;28;20459;-67
2021/09/16 04:36:05;;;;;;;5.67;5.27;;;19.10;99.90;;;;;;4957844;29;21008;-67
2021/09/16 04:38:32;;;;;;;5.73;5.13;;;19.10;99.90;;;;;;4958453;29;20444;-69
2021/09/16 04:40:59;;;;;;;4.93;4.60;;;19.20;99.90;;;;;;4958030;29;20479;-69
2021/09/16 04:43:26;;;;;;;5.63;5.03;;;19.20;99.90;;;;;;4958323;29;20460;-68
2021/09/16 04:45:52;;;;;;;6.17;5.70;;;19.20;99.90;;;;;;4957804;29;20458;-70
2021/09/16 04:48:19;;;;;;;6.00;5.40;;;19.30;99.90;;;;;;4958152;28;20536;-70
2021/09/16 04:50:46;;;;;;;7.07;6.37;;;19.30;99.90;;;;;;4958408;29;20569;-70
2021/09/16 04:53:14;;;;;;;6.27;5.73;;;19.30;99.90;;;;;;4958422;29;20903;-70
2021/09/16 04:55:41;;;;;;;9.00;5.83;;;19.40;99.90;;;;;;4958136;28;20486;-70
2021/09/16 04:58:07;;;;;;;6.10;5.47;;;19.40;99.90;;;;;;4957736;29;20459;-69
2021/09/16 05:00:34;;;;;;;5.90;5.40;;;19.40;99.90;;;;;;4957665;29;20986;-70
2021/09/16 05:03:01;;;;;;;6.77;5.47;;;19.40;99.90;;;;;;4957966;28;20464;-69
2021/09/16 05:05:28;;;;;;;6.47;4.67;;;19.40;99.90;;;;;;4957762;29;20459;-67
2021/09/16 05:07:55;;;;;;;6.37;5.00;;;19.40;99.90;;;;;;4957461;28;20456;-67
2021/09/16 05:10:23;;;;;;;5.53;5.10;;;19.50;99.90;;;;;;4957836;29;20460;-67
2021/09/16 05:12:50;;;;;;;5.67;5.17;;;19.60;99.90;;;;;;4957491;29;21009;-67
2021/09/16 05:15:16;;;;;;;7.13;5.20;;;19.50;99.90;;;;;;4957851;29;20885;-67
2021/09/16 05:17:43;;;;;;;4.50;3.87;;;19.50;99.90;;;;;;4957235;28;20459;-69
2021/09/16 05:20:11;;;;;;;5.87;5.30;;;19.60;99.90;;;;;;4957752;29;20455;-69
2021/09/16 05:22:38;;;;;;;6.00;5.40;;;19.70;99.90;;;;;;4957742;28;20460;-69
2021/09/16 05:25:05;;;;;;;6.17;5.23;;;19.70;99.90;;;;;;4957575;28;20462;-69
2021/09/16 05:27:33;;;;;;;6.73;4.93;;;19.70;99.90;;;;;;4957319;28;20460;-69
2021/09/16 05:30:00;;;;;;;5.27;4.77;;;19.80;99.90;;;;;;4957409;29;20455;-69
2021/09/16 05:32:28;;;;;;;6.00;5.40;;;19.80;99.90;;;;;;4957480;28;20484;-69
2021/09/16 05:34:55;;;;;;;5.93;5.33;;;19.80;99.90;;;;;;4957435;29;20498;-69
2021/09/16 05:37:22;;;;;;;7.50;5.40;;;19.80;99.90;;;;;;4957353;29;20483;-69
2021/09/16 05:39:48;;;;;;;7.87;5.40;;;19.80;99.90;;;;;;4957268;29;20958;-69
2021/09/16 05:42:15;;;;;;;6.10;5.20;;;19.90;99.90;;;;;;4957504;28;20479;-69
2021/09/16 05:44:43;;;;;;;6.03;5.27;;;19.70;99.90;;;;;;4957072;28;20463;-69
2021/09/16 05:47:10;;;;;;;6.87;5.00;;;19.70;99.90;;;;;;4957222;29;20463;-69
2021/09/16 05:49:36;;;;;;;4.73;4.27;;;19.70;99.90;;;;;;4960683;29;20466;-69
2021/09/16 05:52:04;;;;;;;4.73;4.20;;;19.60;99.90;;;;;;4961084;29;20564;-69
2021/09/16 05:54:30;;;;;;;4.53;4.23;;;19.60;99.90;;;;;;4958308;28;20852;-70
2021/09/16 05:56:57;;;;;;;4.50;3.73;;;19.50;99.90;;;;;;4957534;29;20487;-69
2021/09/16 05:59:24;;;;;;;4.63;4.23;;;19.50;99.90;;;;;;4957095;29;20455;-69
2021/09/16 06:01:52;;;;;;;4.40;4.00;;;19.50;99.90;;;;;;4956774;29;20905;-69
2021/09/16 06:04:18;;;;;;;5.37;4.40;;;19.40;99.90;;;;;;4957791;28;20455;-69
2021/09/16 06:06:45;;;;;;;5.77;5.27;;;19.40;99.90;;;;;;4957839;28;20459;-69
2021/09/16 06:09:12;;;;;;;5.00;4.60;;;19.40;99.90;;;;;;4956742;29;20448;-69
2021/09/16 06:11:38;;;;;;;4.97;4.57;;;19.40;99.90;;;;;;4956532;29;20842;-69
2021/09/16 06:14:05;;;;;;;5.43;4.93;;;19.30;99.90;;;;;;4956534;29;20952;-69
2021/09/16 06:16:32;;;;;;;6.03;5.63;;;19.30;99.90;;;;;;4956501;29;20841;-69
2021/09/16 06:19:00;;;;;;;6.07;5.47;;;19.20;99.90;;;;;;4959315;29;20460;-69
2021/09/16 06:21:26;;;;;;;6.30;5.80;;;19.10;99.90;;;;;;4959990;28;21011;-69
2021/09/16 06:23:53;;;;;;;5.60;5.10;;;19.10;99.90;;;;;;4959081;29;20463;-69
2021/09/16 06:26:21;;;;;;;8.17;6.50;;;19.10;99.90;;;;;;4961046;28;20455;-69
2021/09/16 06:28:48;;;;;;;6.50;5.63;;;19.10;99.90;;;;;;4962625;28;20456;-69
2021/09/16 06:31:15;;;;;;;7.93;6.33;;;19.10;99.90;;;;;;4960526;28;20478;-69
2021/09/16 06:33:42;;;;;;;5.33;5.00;;;19.10;99.90;;;;;;4957222;29;20483;-70
2021/09/16 06:36:10;;;;;;;6.60;5.70;;;19.20;99.90;;;;;;4956508;29;20487;-69
2021/09/16 06:38:36;;;;;;;5.70;5.30;;;19.20;99.90;;;;;;4956387;29;20459;-69
2021/09/16 06:41:03;;;;;;;11.43;6.20;;;19.20;99.90;;;;;;4956548;28;20483;-70
2021/09/16 06:43:30;;;;;;;5.33;4.93;;;19.20;99.90;;;;;;4956579;29;20773;-69
2021/09/16 06:45:57;;;;;;;6.60;5.10;;;19.20;99.90;;;;;;4956106;28;20935;-69
2021/09/16 06:48:24;;;;;;;6.27;5.77;;;19.20;99.90;;;;;;4956333;29;20525;-71
2021/09/16 06:50:51;;;;;;;4.93;4.30;;;19.20;99.90;;;;;;4956117;29;20483;-71
2021/09/16 06:53:19;;;;;;;4.80;4.50;;;19.10;99.90;;;;;;4956193;29;20821;-70
2021/09/16 06:55:45;;;;;;;5.60;5.20;;;19.10;99.90;;;;;;4956195;29;20480;-70
2021/09/16 06:58:13;;;;;;;5.13;4.73;;;19.10;99.90;;;;;;4955575;28;20854;-70
2021/09/16 07:00:39;;;;;;;5.97;5.27;;;19.10;99.90;;;;;;4956071;28;20514;-70
2021/09/16 07:03:06;;;;;;;4.90;4.50;;;19.10;99.90;;;;;;4956638;29;20436;-70
2021/09/16 07:05:33;;;;;;;5.50;5.00;;;19.20;99.90;;;;;;4956264;29;20571;-70
2021/09/16 07:07:59;;;;;;;4.90;4.50;;;19.20;99.90;;;;;;4956325;29;20455;-70
2021/09/16 07:10:27;;;;;;;6.03;4.17;;;19.20;99.90;;;;;;4955865;29;20464;-70
2021/09/16 07:12:54;;;;;;;4.90;4.60;;;19.20;99.90;;;;;;4956154;29;20447;-70
2021/09/16 07:15:21;;;;;;;8.00;5.80;;;19.20;99.90;;;;;;4956796;29;20456;-70
2021/09/16 07:17:47;;;;;;;7.67;7.10;;;19.20;99.90;;;;;;4956076;28;20515;-71
2021/09/16 07:20:14;;;;;;;9.97;8.77;;;19.20;99.90;;;;;;4956064;29;20526;-69
2021/09/16 07:22:41;;;;;;;24.50;12.37;;;19.30;99.90;;;;;;4957363;28;20470;-70
2021/09/16 07:25:10;;;;;;;14.90;13.50;;;19.30;99.90;;;;;;4955875;29;20467;-69
2021/09/16 07:27:38;;;;;;;14.13;12.70;;;19.40;99.90;;;;;;4955897;28;20820;-70
2021/09/16 07:30:05;;;;;;;17.67;13.60;;;19.40;99.90;;;;;;4956770;28;20460;-70
2021/09/16 07:32:32;;;;;;;18.30;15.50;;;19.40;99.90;;;;;;4958020;28;20479;-69
2021/09/16 07:34:59;;;;;;;17.47;15.10;;;19.40;99.90;;;;;;4956274;29;20799;-70
2021/09/16 07:37:26;;;;;;;16.83;14.73;;;19.40;99.90;;;;;;4956118;29;20479;-69
2021/09/16 07:39:53;;;;;;;17.07;15.37;;;19.40;99.90;;;;;;4958371;28;20465;-69
2021/09/16 07:42:19;;;;;;;19.37;16.70;;;19.40;99.90;;;;;;4955930;28;20475;-69
2021/09/16 07:44:47;;;;;;;20.23;17.10;;;19.30;99.90;;;;;;4955658;29;20942;-70
2021/09/16 07:47:14;;;;;;;19.60;17.60;;;19.30;99.90;;;;;;4955734;29;20463;-68
2021/09/16 07:49:41;;;;;;;20.00;17.90;;;19.30;99.90;;;;;;4955871;29;20451;-69
2021/09/16 07:52:16;;;;;;;19.43;17.53;;;19.30;99.90;;;;;;4955985;29;20479;-69
2021/09/16 07:54:52;;;;;;;20.70;18.53;;;19.30;99.90;;;;;;4955456;28;20522;-68
2021/09/16 07:57:23;;;;;;;19.63;17.67;;;19.30;99.90;;;;;;4955541;29;20531;-69
2021/09/16 07:59:57;;;;;;;22.57;20.30;;;19.20;99.90;;;;;;4955280;29;20820;-68
2021/09/16 08:02:50;;;;;;;23.40;20.50;;;19.20;99.90;;;;;;4954668;28;20556;-68
2021/09/16 08:05:25;;;;;;;22.27;19.97;;;19.00;99.90;;;;;;4955255;28;20462;-69
2021/09/16 08:08:08;;;;;;;22.67;19.13;;;19.00;99.90;;;;;;4954526;28;20469;-68
2021/09/16 08:10:39;;;;;;;22.87;19.00;;;19.00;99.90;;;;;;4958490;28;20499;-68
2021/09/16 08:13:13;;;;;;;21.90;19.10;;;19.00;99.90;;;;;;4958526;28;20451;-70
2021/09/16 08:15:52;;;;;;;22.27;17.47;;;18.90;99.90;;;;;;4958238;28;20452;-68
2021/09/16 08:18:23;;;;;;;22.47;18.80;;;18.90;99.90;;;;;;4958387;29;20435;-70
2021/09/16 08:20:58;;;;;;;17.57;15.77;;;18.90;99.90;;;;;;4958204;29;20472;-69
2021/09/16 08:23:45;;;;;;;12.00;10.90;;;18.90;99.90;;;;;;4958789;28;20435;-69
2021/09/16 08:26:15;;;;;;;13.40;12.07;;;18.80;99.90;;;;;;4958304;28;20443;-69
2021/09/16 08:28:49;;;;;;;13.17;11.70;;;18.60;99.90;;;;;;4957796;28;20451;-69
2021/09/16 08:31:21;;;;;;;10.40;9.60;;;18.60;99.90;;;;;;4958220;28;20476;-69
2021/09/16 08:33:52;;;;;;;10.23;9.10;;;18.50;99.90;;;;;;4958471;29;20458;-69
2021/09/16 08:36:25;;;;;;;10.30;9.37;;;18.30;99.90;;;;;;4957964;28;20474;-69
2021/09/16 08:38:54;;;;;;;12.00;8.27;;;18.20;99.90;;;;;;4957366;28;20456;-69
2021/09/16 08:41:36;;;;;;;9.40;8.60;;;18.20;99.90;;;;;;4957928;28;20487;-69
2021/09/16 08:44:21;;;;;;;10.30;9.40;;;18.20;99.90;;;;;;4958093;28;20440;-69
2021/09/16 08:46:52;;;;;;;10.63;9.73;;;18.00;99.90;;;;;;4956187;28;20451;-69
2021/09/16 08:49:33;;;;;;;11.67;10.67;;;18.00;99.90;;;;;;4957779;28;20534;-69
2021/09/16 08:52:04;;;;;;;14.47;11.53;;;17.90;99.90;;;;;;4957645;28;20514;-69
2021/09/16 08:54:41;;;;;;;14.43;13.07;;;17.90;99.90;;;;;;4959173;28;20444;-69
2021/09/16 08:57:16;;;;;;;15.67;14.10;;;17.80;99.90;;;;;;4960620;29;20479;-69
2021/09/16 08:59:52;;;;;;;17.20;15.50;;;17.80;99.90;;;;;;4959550;28;20465;-69
2021/09/16 09:02:28;;;;;;;19.43;17.43;;;17.80;99.90;;;;;;4957567;28;20494;-69
2021/09/16 09:05:10;;;;;;;22.77;18.40;;;17.80;99.90;;;;;;4957645;29;20954;-70
2021/09/16 09:07:43;;;;;;;20.63;18.43;;;17.70;99.90;;;;;;4957860;28;20460;-69
2021/09/16 09:10:36;;;;;;;22.20;19.87;;;17.70;99.90;;;;;;4957438;28;20466;-69
2021/09/16 09:13:06;;;;;;;22.57;20.37;;;17.80;99.90;;;;;;4957124;28;20462;-69
2021/09/16 09:15:39;;;;;;;22.30;20.00;;;17.80;99.90;;;;;;4957334;28;20464;-69
2021/09/16 09:18:20;;;;;;;24.20;20.60;;;17.80;99.90;;;;;;4957253;28;21014;-69
2021/09/16 09:21:05;;;;;;;21.67;19.37;;;17.90;99.90;;;;;;4956399;28;20608;-68
2021/09/16 09:23:50;;;;;;;21.93;19.67;;;17.90;99.90;;;;;;4957334;29;20455;-69
2021/09/16 09:29:29;;;;;;;22.57;19.83;;;17.90;99.90;;;;;;4956459;29;20452;-69
2021/09/16 09:32:05;;;;;;;20.20;18.10;;;17.90;99.90;;;;;;4956802;28;20468;-69
2021/09/16 09:37:36;;;;;;;20.53;18.43;;;18.00;99.90;;;;;;4956697;28;20467;-69
2021/09/16 09:40:08;;;;;;;17.30;15.67;;;17.90;99.90;;;;;;4956833;28;20459;-69
2021/09/16 09:42:39;;;;;;;19.27;17.23;;;17.90;99.90;;;;;;4957019;28;20478;-69
2021/09/16 09:45:14;;;;;;;18.53;16.63;;;17.90;99.90;;;;;;4956862;29;20463;-69
2021/09/16 09:47:45;;;;;;;17.43;15.83;;;18.00;99.90;;;;;;4956550;28;20446;-69
2021/09/16 09:50:21;;;;;;;17.47;15.80;;;18.10;99.90;;;;;;4956355;28;20452;-71
2021/09/16 09:52:53;;;;;;;16.37;14.60;;;18.10;99.90;;;;;;4956315;28;20507;-69
2021/09/16 09:55:29;;;;;;;14.83;13.40;;;18.00;99.90;;;;;;4956327;28;20523;-69
2021/09/16 09:58:08;;;;;;;16.73;15.13;;;18.00;99.90;;;;;;4956204;28;20483;-69
2021/09/16 10:00:39;;;;;;;15.07;13.63;;;18.10;99.90;;;;;;4956378;28;20495;-69
2021/09/16 10:03:34;;;;;;;14.87;13.47;;;18.10;99.90;;;;;;4956534;28;20442;-69
2021/09/16 10:06:21;;;;;;;13.77;12.60;;;18.10;99.90;;;;;;4956347;28;20455;-69
2021/09/16 10:09:09;;;;;;;16.33;14.80;;;18.10;99.90;;;;;;4956683;29;20455;-70
2021/09/16 10:11:43;;;;;;;16.10;14.47;;;18.00;99.90;;;;;;4956409;29;20554;-69
2021/09/16 10:14:41;;;;;;;16.13;14.53;;;17.90;99.90;;;;;;4956540;28;20471;-69
2021/09/16 10:17:15;;;;;;;17.60;15.37;;;17.90;99.90;;;;;;4956075;28;20483;-70
2021/09/16 10:19:55;;;;;;;17.10;15.30;;;17.90;99.90;;;;;;4956195;28;20444;-70
2021/09/16 10:22:39;;;;;;;20.93;17.93;;;17.80;99.90;;;;;;4956230;28;20475;-70
2021/09/16 10:25:28;;;;;;;21.13;17.20;;;17.90;99.90;;;;;;4956452;29;21026;-70
2021/09/16 10:28:05;;;;;;;17.60;15.73;;;17.90;99.90;;;;;;4955739;28;20530;-70
2021/09/16 10:30:49;;;;;;;17.00;15.30;;;17.90;99.90;;;;;;4956254;28;20497;-70
2021/09/16 10:33:34;;;;;;;17.27;15.60;;;17.90;99.90;;;;;;4955200;28;20454;-70
2021/09/16 10:36:11;;;;;;;17.53;15.73;;;17.90;99.90;;;;;;4957342;28;20466;-70
2021/09/16 10:38:49;;;;;;;17.97;16.17;;;18.00;99.90;;;;;;4960548;28;20482;-70
2021/09/16 10:41:29;;;;;;;18.50;16.50;;;18.00;99.90;;;;;;4960987;28;20476;-70
2021/09/16 10:44:22;;;;;;;20.83;16.97;;;17.90;99.90;;;;;;4959945;28;20517;-70
2021/09/16 10:47:00;;;;;;;17.47;15.50;;;17.80;99.90;;;;;;4959472;29;20494;-70
2021/09/16 10:49:41;;;;;;;19.33;16.67;;;17.90;99.90;;;;;;4957860;29;20452;-70
2021/09/16 10:52:25;;;;;;;17.27;15.67;;;17.90;99.90;;;;;;4955776;28;20482;-70
2021/09/16 10:57:51;;;;;;;19.70;17.60;;;18.00;99.90;;;;;;4954518;28;20468;-70
2021/09/16 11:00:24;;;;;;;19.60;17.70;;;17.90;99.90;;;;;;4956074;28;20504;-70
2021/09/16 11:03:14;;;;;;;20.67;18.33;;;17.90;99.90;;;;;;4956143;28;20455;-70
2021/09/16 11:06:00;;;;;;;19.03;16.60;;;17.90;99.90;;;;;;4960447;28;20483;-70
2021/09/16 11:09:07;;;;;;;20.07;17.97;;;17.90;99.90;;;;;;4960290;29;20608;-70
2021/09/16 11:12:03;;;;;;;17.87;15.70;;;18.00;99.90;;;;;;4959468;28;20531;-69
2021/09/16 11:14:47;;;;;;;17.47;15.40;;;18.10;99.90;;;;;;4957032;28;20919;-70
2021/09/16 11:17:29;;;;;;;18.47;16.57;;;18.10;99.90;;;;;;4956017;28;20463;-70
2021/09/16 11:20:01;;;;;;;20.07;18.00;;;18.20;99.90;;;;;;4956194;29;20986;-70
2021/09/16 11:22:37;;;;;;;19.50;17.70;;;18.10;99.90;;;;;;4955217;28;20471;-70
2021/09/16 11:25:14;;;;;;;18.67;16.97;;;18.20;99.90;;;;;;4955705;29;20530;-70
2021/09/16 11:27:44;;;;;;;20.10;18.00;;;18.20;99.90;;;;;;4954586;28;20459;-70
2021/09/16 11:30:17;;;;;;;20.83;18.80;;;18.10;99.90;;;;;;4955403;28;20487;-70
2021/09/16 11:33:11;;;;;;;19.70;17.70;;;18.10;99.90;;;;;;4955328;29;20440;-70
2021/09/16 11:35:40;;;;;;;19.90;17.83;;;18.20;99.90;;;;;;4955940;28;20495;-70
2021/09/16 11:38:13;;;;;;;17.93;16.33;;;18.40;99.90;;;;;;4955511;28;20487;-70
2021/09/16 11:40:49;;;;;;;19.00;17.10;;;18.60;99.90;;;;;;4955360;28;20475;-70
2021/09/16 11:43:34;;;;;;;18.70;15.10;;;18.80;99.90;;;;;;4955847;28;20482;-70
2021/09/16 11:46:18;;;;;;;18.27;16.47;;;18.80;99.90;;;;;;4959124;28;20966;-70
2021/09/16 11:49:04;;;;;;;17.93;14.13;;;18.70;99.90;;;;;;4958616;28;20436;-70
2021/09/16 11:51:34;;;;;;;16.87;15.23;;;18.80;99.90;;;;;;4958737;28;20549;-70
2021/09/16 11:54:23;;;;;;;16.20;14.63;;;18.80;99.90;;;;;;4958822;28;20486;-70
2021/09/16 11:57:03;;;;;;;13.87;12.53;;;18.80;99.90;;;;;;4958933;28;20475;-69
2021/09/16 11:59:41;;;;;;;16.60;15.10;;;18.80;99.90;;;;;;4960461;28;20454;-71
2021/09/16 12:02:20;;;;;;;15.43;14.13;;;18.80;99.90;;;;;;4959999;28;20483;-69
2021/09/16 12:04:57;;;;;;;14.20;12.90;;;18.90;99.90;;;;;;4961011;28;20446;-68
2021/09/16 12:07:25;;;;;;;18.57;15.10;;;19.00;99.90;;;;;;4959084;29;20436;-68
2021/09/16 12:10:01;;;;;;;14.50;13.00;;;19.00;99.90;;;;;;4958939;29;20459;-68
2021/09/16 12:12:32;;;;;;;15.83;14.40;;;19.00;99.90;;;;;;4959526;29;20483;-69
2021/09/16 12:15:10;;;;;;;14.10;12.73;;;19.10;99.90;;;;;;4959117;28;20455;-69
2021/09/16 12:17:40;;;;;;;15.00;13.53;;;19.30;99.90;;;;;;4958953;28;20518;-69
2021/09/16 12:20:24;;;;;;;14.60;13.30;;;19.40;99.90;;;;;;4958601;28;20458;-69
2021/09/16 12:22:59;;;;;;;15.13;13.83;;;19.60;99.90;;;;;;4958493;28;20459;-69
2021/09/16 12:25:28;;;;;;;15.93;14.40;;;19.80;99.90;;;;;;4958730;28;20471;-69
2021/09/16 12:28:11;;;;;;;15.70;14.10;;;20.00;99.90;;;;;;4958148;28;20494;-68
2021/09/16 12:30:47;;;;;;;15.23;13.83;;;20.10;99.90;;;;;;4958400;28;20970;-68
2021/09/16 12:33:45;;;;;;;15.67;14.27;;;20.30;99.90;;;;;;4958552;28;20439;-68
2021/09/16 12:36:35;;;;;;;15.10;13.80;;;20.40;99.90;;;;;;4958639;28;20459;-67
2021/09/16 12:42:01;;;;;;;15.23;13.93;;;20.40;99.90;;;;;;4958529;29;20472;-68
2021/09/16 12:45:00;;;;;;;15.67;13.40;;;20.60;99.90;;;;;;4958524;28;20577;-68
2021/09/16 12:47:35;;;;;;;15.87;14.37;;;20.80;99.90;;;;;;4959002;29;20447;-68
2021/09/16 12:50:10;;;;;;;16.07;14.53;;;20.70;99.90;;;;;;4959595;28;20985;-69
2021/09/16 12:52:44;;;;;;;17.93;16.33;;;20.80;99.90;;;;;;4958390;28;20538;-68
2021/09/16 12:55:14;;;;;;;16.40;15.00;;;20.80;99.90;;;;;;4957249;28;20436;-68
2021/09/16 12:58:08;;;;;;;17.70;16.00;;;20.60;99.90;;;;;;4958011;28;20482;-68
2021/09/16 13:00:39;;;;;;;19.80;17.73;;;20.50;99.90;;;;;;4957554;28;20495;-69
2021/09/16 13:03:24;;;;;;;17.60;16.00;;;20.40;99.90;;;;;;4957719;28;20456;-69
2021/09/16 13:06:12;;;;;;;21.70;17.37;;;20.40;99.90;;;;;;4957446;28;20459;-68
2021/09/16 13:08:44;;;;;;;18.50;16.60;;;20.40;99.90;;;;;;4957080;28;20444;-68
2021/09/16 13:11:23;;;;;;;18.87;17.20;;;20.30;99.90;;;;;;4957021;29;20476;-69
2021/09/16 13:14:10;;;;;;;17.87;16.27;;;20.20;99.90;;;;;;4956919;28;20466;-69
2021/09/16 13:16:57;;;;;;;17.63;16.13;;;20.10;99.90;;;;;;4957583;28;20472;-69
2021/09/16 13:19:38;;;;;;;18.43;16.73;;;19.80;99.90;;;;;;4957053;28;20471;-69
2021/09/16 13:22:09;;;;;;;19.57;17.87;;;19.70;99.90;;;;;;4957136;28;20479;-69
2021/09/16 13:24:43;;;;;;;17.60;16.10;;;19.60;99.90;;;;;;4956442;29;20466;-69
2021/09/16 13:27:24;;;;;;;20.63;18.60;;;19.50;99.90;;;;;;4957430;28;20440;-69
2021/09/16 13:30:09;;;;;;;20.00;18.40;;;19.50;99.90;;;;;;4957474;29;20447;-69
2021/09/16 13:32:47;;;;;;;22.37;20.17;;;19.40;99.90;;;;;;4957527;28;20490;-69
2021/09/16 13:35:25;;;;;;;20.60;18.40;;;19.40;99.90;;;;;;4957360;28;20459;-69
2021/09/16 13:37:59;;;;;;;20.13;18.43;;;19.50;99.90;;;;;;4957504;28;20467;-69
2021/09/16 13:40:37;;;;;;;20.00;18.10;;;19.40;99.90;;;;;;4957355;28;20454;-69
2021/09/16 13:43:18;;;;;;;18.50;16.83;;;19.40;99.90;;;;;;4956855;28;20446;-69
2021/09/16 13:46:05;;;;;;;19.30;17.60;;;19.40;99.90;;;;;;4957151;28;20806;-69
2021/09/16 13:48:44;;;;;;;17.37;15.63;;;19.50;99.90;;;;;;4957955;28;20527;-69
2021/09/16 13:51:23;;;;;;;17.47;16.00;;;19.50;99.90;;;;;;4956169;28;20475;-69
2021/09/16 13:54:02;;;;;;;19.43;17.43;;;19.60;99.90;;;;;;4956405;28;20439;-69
2021/09/16 13:56:45;;;;;;;19.00;15.87;;;19.50;99.90;;;;;;4956918;28;20440;-69
2021/09/16 13:59:33;;;;;;;17.33;15.47;;;19.60;99.90;;;;;;4956840;28;20468;-69
2021/09/16 14:02:14;;;;;;;17.27;15.10;;;19.70;99.90;;;;;;4956093;28;20542;-69
2021/09/16 14:04:58;;;;;;;15.10;13.87;;;19.90;99.90;;;;;;4956769;28;20455;-69
2021/09/16 14:07:35;;;;;;;16.43;14.77;;;20.00;99.90;;;;;;4957084;28;20443;-69
2021/09/16 14:10:07;;;;;;;15.63;14.33;;;20.20;99.90;;;;;;4956785;28;20534;-69
2021/09/16 14:12:52;;;;;;;15.30;13.90;;;20.30;99.90;;;;;;4956165;28;20476;-69
2021/09/16 14:15:46;;;;;;;14.27;13.10;;;20.30;99.90;;;;;;4956984;28;20454;-69
2021/09/16 14:18:26;;;;;;;14.63;13.17;;;20.50;99.90;;;;;;4956464;28;20468;-69
2021/09/16 14:21:20;;;;;;;15.20;13.80;;;20.70;99.90;;;;;;4956210;28;20471;-69
2021/09/16 14:24:14;;;;;;;;;;;;;;;;;;;;;
2021/09/16 14:27:13;;;;;;;13.57;12.50;;;20.80;99.90;;;;;;4956238;28;20478;-69
2021/09/16 14:29:49;;;;;;;11.80;10.80;;;20.80;99.90;;;;;;4956472;28;20963;-70
2021/09/16 14:32:27;;;;;;;11.53;10.63;;;20.90;99.90;;;;;;4956224;28;20479;-69
2021/09/16 14:35:10;;;;;;;12.17;11.17;;;21.00;99.90;;;;;;4956351;29;20804;-69
2021/09/16 14:37:47;;;;;;;12.80;11.47;;;21.00;99.90;;;;;;4957023;28;20452;-69
2021/09/16 14:40:32;;;;;;;14.13;12.90;;;20.90;99.90;;;;;;4957456;28;20506;-69
2021/09/16 14:43:09;;;;;;;14.13;12.83;;;20.90;99.90;;;;;;4962290;28;20482;-69
2021/09/16 14:45:42;;;;;;;13.33;12.23;;;21.00;99.90;;;;;;4958454;29;20439;-69
2021/09/16 14:48:30;;;;;;;13.90;12.70;;;20.80;99.90;;;;;;4956571;28;20919;-68
2021/09/16 14:51:25;;;;;;;15.00;12.87;;;20.70;99.90;;;;;;4956373;28;21025;-69
2021/09/16 14:54:27;;;;;;;14.83;13.60;;;20.60;99.90;;;;;;4949861;28;20463;-69
2021/09/16 14:57:16;;;;;;;14.83;13.53;;;20.40;99.90;;;;;;4955893;28;20493;-68
2021/09/16 14:59:46;;;;;;;14.90;13.57;;;20.30;99.90;;;;;;4956841;28;20468;-68
2021/09/16 15:02:23;;;;;;;14.67;13.47;;;20.20;99.90;;;;;;4959607;29;20975;-68
2021/09/16 15:05:05;;;;;;;14.10;13.00;;;20.20;99.90;;;;;;4964279;28;20519;-68
2021/09/16 15:07:42;;;;;;;12.80;11.60;;;20.30;99.90;;;;;;4962104;28;20814;-69
2021/09/16 15:10:25;;;;;;;12.13;11.20;;;20.30;99.90;;;;;;4957279;28;20486;-68
2021/09/16 15:13:24;;;;;;;12.90;11.80;;;20.30;99.90;;;;;;4955877;28;20462;-67
2021/09/16 15:19:09;;;;;;;12.77;11.80;;;19.90;99.90;;;;;;4956183;28;20515;-68
2021/09/16 15:21:51;;;;;;;12.37;11.23;;;19.80;99.90;;;;;;4960260;29;20479;-68
2021/09/16 15:24:43;;;;;;;10.53;9.70;;;19.60;99.90;;;;;;4959452;28;20451;-69
2021/09/16 15:27:24;;;;;;;11.10;9.90;;;19.50;99.90;;;;;;4959575;29;20531;-67
2021/09/16 15:30:23;;;;;;;10.97;9.97;;;19.40;99.90;;;;;;4959695;29;20439;-67
2021/09/16 15:36:04;;;;;;;9.40;8.60;;;19.40;99.90;;;;;;4902509;29;20557;-68
2021/09/16 15:38:54;;;;;;;9.30;8.50;;;19.50;99.90;;;;;;4912382;28;20915;-68
2021/09/16 15:41:49;;;;;;;9.23;8.40;;;19.60;99.90;;;;;;4959100;28;20514;-69
2021/09/16 15:44:18;;;;;;;8.83;7.93;;;19.70;99.90;;;;;;4961980;28;20546;-68
2021/09/16 15:46:56;;;;;;;8.73;7.87;;;19.60;99.90;;;;;;4960417;28;20459;-69
2021/09/16 15:49:51;;;;;;;8.47;7.67;;;19.70;99.90;;;;;;4959777;28;20478;-69
2021/09/16 15:52:29;;;;;;;8.90;8.10;;;19.70;99.90;;;;;;4959787;28;20518;-68
2021/09/16 15:55:27;;;;;;;7.70;7.17;;;19.80;99.90;;;;;;4959604;28;20466;-68
2021/09/16 15:58:05;;;;;;;8.33;7.10;;;19.70;99.90;;;;;;4959449;28;20435;-70
2021/09/16 16:00:46;;;;;;;8.37;7.63;;;19.60;99.90;;;;;;4958808;28;20551;-69
2021/09/16 16:03:19;;;;;;;7.67;7.07;;;19.40;99.90;;;;;;4959211;28;20467;-70
2021/09/16 16:08:59;;;;;;;8.20;7.60;;;19.30;99.90;;;;;;4950577;28;20443;-69
2021/09/16 16:14:30;;;;;;;7.20;6.60;;;19.10;99.90;;;;;;4957666;28;20817;-69
2021/09/16 16:17:13;;;;;;;7.53;6.93;;;19.20;99.90;;;;;;4958468;28;20965;-70
2021/09/16 16:20:00;;;;;;;8.20;7.40;;;19.30;99.90;;;;;;4958775;28;20469;-69
2021/09/16 16:25:44;;;;;;;7.73;7.13;;;19.20;99.90;;;;;;4951832;28;20455;-69
2021/09/16 16:28:38;;;;;;;6.80;6.20;;;19.30;99.90;;;;;;4958475;29;20436;-70
2021/09/16 16:31:22;;;;;;;10.70;7.07;;;19.20;99.90;;;;;;4957984;28;20485;-70
2021/09/16 16:34:00;;;;;;;7.43;6.80;;;19.10;99.90;;;;;;4958740;28;20494;-70
2021/09/16 16:36:46;;;;;;;8.03;7.33;;;19.10;99.90;;;;;;4958717;29;20479;-71
2021/09/16 16:39:24;;;;;;;12.17;7.10;;;19.10;99.90;;;;;;4958280;28;20582;-70
2021/09/16 16:42:13;;;;;;;7.60;6.83;;;19.00;99.90;;;;;;4958509;28;20483;-72
2021/09/16 16:44:41;;;;;;;9.33;7.10;;;19.00;99.90;;;;;;4958958;29;20447;-70
2021/09/16 16:47:14;;;;;;;6.60;6.00;;;18.90;99.90;;;;;;4959260;29;20460;-70
2021/09/16 16:49:44;;;;;;;6.90;5.93;;;18.90;99.90;;;;;;4959953;29;20452;-68
2021/09/16 16:52:25;;;;;;;7.13;6.33;;;18.90;99.90;;;;;;4958067;28;20483;-70
2021/09/16 16:55:04;;;;;;;10.10;9.10;;;18.90;99.90;;;;;;4958280;28;20462;-67
2021/09/16 16:57:32;;;;;;;6.93;6.30;;;18.90;99.90;;;;;;4958117;28;20446;-66
2021/09/16 17:00:05;;;;;;;9.37;8.47;;;18.80;99.90;;;;;;4958044;29;20575;-68
2021/09/16 17:02:45;;;;;;;8.03;7.03;;;18.90;99.90;;;;;;4958131;28;20562;-68
2021/09/16 17:05:34;;;;;;;8.93;7.70;;;18.90;99.90;;;;;;4957716;28;20436;-68
2021/09/16 17:08:19;;;;;;;22.23;15.40;;;18.90;99.90;;;;;;4957580;29;20444;-70
2021/09/16 17:10:53;;;;;;;6.27;5.67;;;19.00;99.90;;;;;;4958573;29;20468;-68
2021/09/16 17:13:31;;;;;;;6.00;5.50;;;18.90;99.90;;;;;;4958206;29;20535;-68
2021/09/16 17:16:03;;;;;;;5.83;5.37;;;18.90;99.90;;;;;;4958217;29;20455;-72
2021/09/16 17:21:35;;;;;;;4.43;4.13;;;18.90;99.90;;;;;;4958087;28;20555;-72
2021/09/16 17:24:23;;;;;;;8.50;5.80;;;18.80;99.90;;;;;;4957334;28;20913;-71
2021/09/16 17:26:53;;;;;;;6.00;5.40;;;18.80;99.90;;;;;;4957666;29;20963;-72
2021/09/16 17:29:24;;;;;;;5.53;5.13;;;18.60;99.90;;;;;;4957772;29;20908;-72
2021/09/16 17:31:55;;;;;;;5.10;4.70;;;18.50;99.90;;;;;;4957280;29;20997;-72
2021/09/16 17:34:22;;;;;;;5.80;5.40;;;18.50;99.90;;;;;;4957211;28;20506;-71
2021/09/16 17:36:54;;;;;;;5.80;5.20;;;18.40;99.90;;;;;;4957117;29;20948;-70
2021/09/16 17:39:26;;;;;;;5.73;5.23;;;18.40;99.90;;;;;;4957250;28;20479;-69
2021/09/16 17:41:59;;;;;;;6.20;5.33;;;18.30;99.90;;;;;;4956659;28;20990;-69
2021/09/16 17:44:29;;;;;;;8.63;6.63;;;18.30;99.90;;;;;;4957124;28;20939;-71
2021/09/16 17:47:03;;;;;;;8.23;6.23;;;18.30;99.90;;;;;;4957145;28;20455;-69
2021/09/16 17:49:41;;;;;;;7.80;7.20;;;18.30;99.90;;;;;;4957006;28;20436;-70